sensor_id;sensor_type;location;lat;lon;timestamp;P1;durP1;ratioP1;P2;durP2;ratioP2
30346;SDS011;19047;44.782;20.468;2022-10-16T08:10:18;4.10;;;2.67;;
30346;SDS011;19047;44.782;20.468;2022-10-16T08:13:51;4.18;;;2.92;;
30346;SDS011;19047;44.782;20.468;2022-10-16T08:17:08;5.07;;;2.55;;
30346;SDS011;19047;44.782;20.468;2022-10-16T08:20:40;4.40;;;2.58;;
30346;SDS011;19047;44.782;20.468;2022-10-16T08:23:57;3.28;;;2.67;;
30346;SDS011;19047;44.782;20.468;2022-10-16T08:27:35;4.35;;;2.45;;
30346;SDS011;19047;44.782;20.468;2022-10-16T08:30:52;5.50;;;2.80;;
30346;SDS011;19047;44.782;20.468;2022-10-16T08:34:26;4.05;;;3.13;;
30346;SDS011;19047;44.782;20.468;2022-10-16T08:37:43;5.10;;;2.42;;
30346;SDS011;19047;44.782;20.468;2022-10-16T08:48:53;3.72;;;2.95;;
30346;SDS011;19047;44.782;20.468;2022-10-16T08:52:14;6.03;;;3.10;;
30346;SDS011;19047;44.782;20.468;2022-10-16T08:55:51;3.67;;;2.55;;
30346;SDS011;19047;44.782;20.468;2022-10-16T08:59:10;3.33;;;2.65;;
30346;SDS011;19047;44.782;20.468;2022-10-16T09:06:29;4.50;;;2.88;;
30346;SDS011;19047;44.782;20.468;2022-10-16T09:21:50;3.10;;;2.47;;
30346;SDS011;19047;44.782;20.468;2022-10-16T09:25:21;2.80;;;2.60;;
30346;SDS011;19047;44.782;20.468;2022-10-16T09:28:38;4.53;;;3.53;;
30346;SDS011;19047;44.782;20.468;2022-10-16T09:32:14;4.90;;;2.63;;
30346;SDS011;19047;44.782;20.468;2022-10-16T09:35:42;5.68;;;2.78;;
30346;SDS011;19047;44.782;20.468;2022-10-16T09:39:14;3.88;;;2.92;;
30346;SDS011;19047;44.782;20.468;2022-10-16T09:42:38;4.30;;;2.97;;
30346;SDS011;19047;44.782;20.468;2022-10-16T09:46:21;4.78;;;2.42;;
30346;SDS011;19047;44.782;20.468;2022-10-16T09:49:39;2.67;;;2.47;;
30346;SDS011;19047;44.782;20.468;2022-10-16T09:53:14;3.75;;;2.83;;
30346;SDS011;19047;44.782;20.468;2022-10-16T09:56:34;5.72;;;3.42;;
30346;SDS011;19047;44.782;20.468;2022-10-16T10:00:08;3.47;;;2.65;;
30346;SDS011;19047;44.782;20.468;2022-10-16T10:03:39;3.97;;;3.00;;
30346;SDS011;19047;44.782;20.468;2022-10-16T10:07:17;3.72;;;3.13;;
30346;SDS011;19047;44.782;20.468;2022-10-16T10:10:40;4.50;;;3.30;;
30346;SDS011;19047;44.782;20.468;2022-10-16T10:14:25;4.40;;;3.38;;
30346;SDS011;19047;44.782;20.468;2022-10-16T10:17:47;3.80;;;3.10;;
30346;SDS011;19047;44.782;20.468;2022-10-16T10:21:18;3.80;;;2.80;;
30346;SDS011;19047;44.782;20.468;2022-10-16T10:24:35;4.75;;;3.20;;
30346;SDS011;19047;44.782;20.468;2022-10-16T10:35:48;4.22;;;3.65;;
30346;SDS011;19047;44.782;20.468;2022-10-16T10:39:27;3.92;;;2.72;;
30346;SDS011;19047;44.782;20.468;2022-10-16T10:43:17;5.43;;;3.63;;
30346;SDS011;19047;44.782;20.468;2022-10-16T10:46:57;4.20;;;3.33;;
30346;SDS011;19047;44.782;20.468;2022-10-16T10:54:06;6.35;;;3.40;;
30346;SDS011;19047;44.782;20.468;2022-10-16T11:09:02;4.50;;;2.97;;
30346;SDS011;19047;44.782;20.468;2022-10-16T11:12:44;4.05;;;3.17;;
30346;SDS011;19047;44.782;20.468;2022-10-16T11:16:15;4.80;;;3.22;;
30346;SDS011;19047;44.782;20.468;2022-10-16T11:23:25;5.88;;;3.30;;
30346;SDS011;19047;44.782;20.468;2022-10-16T11:27:01;5.63;;;3.35;;
30346;SDS011;19047;44.782;20.468;2022-10-16T11:30:24;5.60;;;3.30;;
30346;SDS011;19047;44.782;20.468;2022-10-16T11:34:17;3.65;;;3.22;;
30346;SDS011;19047;44.782;20.468;2022-10-16T11:37:43;4.80;;;3.45;;
30346;SDS011;19047;44.782;20.468;2022-10-16T11:41:35;6.53;;;3.47;;
30346;SDS011;19047;44.782;20.468;2022-10-16T11:45:02;4.85;;;3.42;;
30346;SDS011;19047;44.782;20.468;2022-10-16T11:49:08;5.57;;;3.65;;
30346;SDS011;19047;44.782;20.468;2022-10-16T11:56:19;4.28;;;3.78;;
30346;SDS011;19047;44.782;20.468;2022-10-16T12:03:59;5.97;;;3.80;;
30346;SDS011;19047;44.782;20.468;2022-10-16T12:07:32;4.93;;;3.47;;
30346;SDS011;19047;44.782;20.468;2022-10-16T12:11:23;4.90;;;3.75;;
30346;SDS011;19047;44.782;20.468;2022-10-16T12:14:59;5.05;;;3.50;;
30346;SDS011;19047;44.782;20.468;2022-10-16T12:18:48;5.72;;;3.88;;
30346;SDS011;19047;44.782;20.468;2022-10-16T12:22:05;4.63;;;3.50;;
30346;SDS011;19047;44.782;20.468;2022-10-16T12:25:53;4.35;;;3.35;;
30346;SDS011;19047;44.782;20.468;2022-10-16T12:29:14;6.32;;;4.30;;
30346;SDS011;19047;44.782;20.468;2022-10-16T12:32:54;6.13;;;4.20;;
30346;SDS011;19047;44.782;20.468;2022-10-16T12:36:26;5.78;;;3.80;;
30346;SDS011;19047;44.782;20.468;2022-10-16T12:39:59;4.80;;;3.78;;
30346;SDS011;19047;44.782;20.468;2022-10-16T12:43:40;6.30;;;4.40;;
30346;SDS011;19047;44.782;20.468;2022-10-16T12:47:23;7.40;;;4.05;;
30346;SDS011;19047;44.782;20.468;2022-10-16T12:55:04;7.63;;;4.30;;
30346;SDS011;19047;44.782;20.468;2022-10-16T12:58:42;5.63;;;4.38;;
30346;SDS011;19047;44.782;20.468;2022-10-16T13:13:37;4.93;;;3.50;;
30346;SDS011;19047;44.782;20.468;2022-10-16T13:28:34;4.82;;;3.30;;
30346;SDS011;19047;44.782;20.468;2022-10-16T13:32:09;6.20;;;3.70;;
30346;SDS011;19047;44.782;20.468;2022-10-16T13:35:30;4.45;;;3.55;;
30346;SDS011;19047;44.782;20.468;2022-10-16T13:39:13;5.32;;;3.72;;
30346;SDS011;19047;44.782;20.468;2022-10-16T13:42:36;5.00;;;3.58;;
30346;SDS011;19047;44.782;20.468;2022-10-16T13:46:10;6.72;;;4.47;;
30346;SDS011;19047;44.782;20.468;2022-10-16T13:49:35;4.53;;;3.60;;
30346;SDS011;19047;44.782;20.468;2022-10-16T13:53:14;7.07;;;3.80;;
30346;SDS011;19047;44.782;20.468;2022-10-16T13:56:32;7.32;;;3.38;;
30346;SDS011;19047;44.782;20.468;2022-10-16T14:03:41;5.50;;;3.70;;
30346;SDS011;19047;44.782;20.468;2022-10-16T14:07:13;5.20;;;3.55;;
30346;SDS011;19047;44.782;20.468;2022-10-16T14:10:35;5.65;;;3.80;;
30346;SDS011;19047;44.782;20.468;2022-10-16T14:14:12;5.95;;;4.13;;
30346;SDS011;19047;44.782;20.468;2022-10-16T14:17:31;7.80;;;4.35;;
30346;SDS011;19047;44.782;20.468;2022-10-16T14:21:05;5.45;;;3.97;;
30346;SDS011;19047;44.782;20.468;2022-10-16T14:28:01;5.50;;;3.90;;
30346;SDS011;19047;44.782;20.468;2022-10-16T14:34:54;5.22;;;3.50;;
30346;SDS011;19047;44.782;20.468;2022-10-16T14:38:17;4.88;;;3.30;;
30346;SDS011;19047;44.782;20.468;2022-10-16T14:41:54;6.03;;;4.00;;
30346;SDS011;19047;44.782;20.468;2022-10-16T14:45:15;4.05;;;3.45;;
30346;SDS011;19047;44.782;20.468;2022-10-16T14:48:50;5.07;;;3.28;;
30346;SDS011;19047;44.782;20.468;2022-10-16T14:52:08;6.38;;;3.65;;
30346;SDS011;19047;44.782;20.468;2022-10-16T14:55:41;4.18;;;3.72;;
30346;SDS011;19047;44.782;20.468;2022-10-16T14:58:58;5.45;;;3.40;;
30346;SDS011;19047;44.782;20.468;2022-10-16T15:02:31;9.07;;;3.90;;
30346;SDS011;19047;44.782;20.468;2022-10-16T15:05:56;5.30;;;3.60;;
30346;SDS011;19047;44.782;20.468;2022-10-16T15:09:26;5.60;;;4.05;;
30346;SDS011;19047;44.782;20.468;2022-10-16T15:12:43;5.72;;;3.75;;
30346;SDS011;19047;44.782;20.468;2022-10-16T15:16:14;5.72;;;3.42;;
30346;SDS011;19047;44.782;20.468;2022-10-16T15:19:32;4.80;;;3.55;;
30346;SDS011;19047;44.782;20.468;2022-10-16T15:23:05;6.32;;;4.32;;
30346;SDS011;19047;44.782;20.468;2022-10-16T15:26:27;5.88;;;4.03;;
30346;SDS011;19047;44.782;20.468;2022-10-16T15:30:01;7.60;;;4.13;;
30346;SDS011;19047;44.782;20.468;2022-10-16T15:33:20;5.82;;;3.85;;
30346;SDS011;19047;44.782;20.468;2022-10-16T15:36:56;5.78;;;3.67;;
30346;SDS011;19047;44.782;20.468;2022-10-16T15:40:14;6.63;;;4.00;;
30346;SDS011;19047;44.782;20.468;2022-10-16T15:43:50;5.32;;;4.03;;
30346;SDS011;19047;44.782;20.468;2022-10-16T15:47:07;7.05;;;4.45;;
30346;SDS011;19047;44.782;20.468;2022-10-16T15:50:39;5.45;;;4.55;;
30346;SDS011;19047;44.782;20.468;2022-10-16T15:54:04;8.23;;;4.65;;
30346;SDS011;19047;44.782;20.468;2022-10-16T15:57:34;8.65;;;4.75;;
30346;SDS011;19047;44.782;20.468;2022-10-16T16:00:59;6.63;;;4.38;;
30346;SDS011;19047;44.782;20.468;2022-10-16T16:04:33;6.88;;;5.30;;
30346;SDS011;19047;44.782;20.468;2022-10-16T16:07:52;9.02;;;4.90;;
30346;SDS011;19047;44.782;20.468;2022-10-16T16:11:25;11.13;;;4.93;;
30346;SDS011;19047;44.782;20.468;2022-10-16T16:14:41;6.00;;;4.90;;
30346;SDS011;19047;44.782;20.468;2022-10-16T16:18:13;7.15;;;5.10;;
30346;SDS011;19047;44.782;20.468;2022-10-16T16:21:30;14.50;;;5.60;;
30346;SDS011;19047;44.782;20.468;2022-10-16T16:25:01;7.20;;;4.80;;
30346;SDS011;19047;44.782;20.468;2022-10-16T16:28:18;6.22;;;4.65;;
30346;SDS011;19047;44.782;20.468;2022-10-16T16:31:48;7.82;;;4.70;;
30346;SDS011;19047;44.782;20.468;2022-10-16T16:35:06;7.45;;;4.47;;
30346;SDS011;19047;44.782;20.468;2022-10-16T16:38:37;6.97;;;4.57;;
30346;SDS011;19047;44.782;20.468;2022-10-16T16:41:55;10.10;;;4.88;;
30346;SDS011;19047;44.782;20.468;2022-10-16T16:45:27;8.82;;;4.35;;
30346;SDS011;19047;44.782;20.468;2022-10-16T16:48:45;6.72;;;4.45;;
